createdAt,value
2022-09-04T00:01:21.380Z,3.80
2022-09-04T00:03:38.932Z,3.40
2022-09-04T00:05:49.035Z,3.40
2022-09-04T00:08:04.122Z,3.20
2022-09-04T00:10:18.386Z,4.10
2022-09-04T00:12:30.194Z,3.50
2022-09-04T00:14:43.638Z,3.30
2022-09-04T00:16:55.259Z,3.50
2022-09-04T00:19:05.957Z,3.30
2022-09-04T00:21:16.368Z,3.00
2022-09-04T00:23:27.361Z,3.00
2022-09-04T00:25:41.213Z,3.30
2022-09-04T00:27:50.331Z,3.20
2022-09-04T00:30:00.984Z,3.30
2022-09-04T00:32:13.866Z,2.90
2022-09-04T00:34:35.863Z,2.90
2022-09-04T00:36:49.501Z,3.10
2022-09-04T00:38:58.471Z,3.00
2022-09-04T00:41:13.258Z,3.00
2022-09-04T00:43:52.136Z,2.70
2022-09-04T00:46:20.379Z,2.90
2022-09-04T00:48:39.763Z,2.90
2022-09-04T00:51:16.350Z,3.20
2022-09-04T00:53:41.522Z,3.30
2022-09-04T00:55:56.827Z,3.20
2022-09-04T00:58:15.698Z,3.10
2022-09-04T01:00:22.588Z,2.80
2022-09-04T01:02:40.408Z,3.00
2022-09-04T01:04:56.694Z,2.90
2022-09-04T01:07:22.751Z,3.20
2022-09-04T01:09:50.591Z,2.80
2022-09-04T01:12:12.386Z,2.90
2022-09-04T01:14:26.230Z,3.00
2022-09-04T01:16:36.033Z,2.90
2022-09-04T01:18:47.800Z,2.80
2022-09-04T01:21:22.368Z,2.90
2022-09-04T01:24:09.226Z,2.70
2022-09-04T01:26:22.505Z,2.70
2022-09-04T01:28:35.323Z,2.80
2022-09-04T01:30:50.194Z,2.90
2022-09-04T01:33:07.832Z,2.90
2022-09-04T01:35:21.798Z,2.80
2022-09-04T01:37:36.155Z,2.60
2022-09-04T01:39:44.620Z,2.70
2022-09-04T01:41:56.691Z,2.80
2022-09-04T01:44:03.464Z,2.80
2022-09-04T01:46:33.162Z,2.60
2022-09-04T01:48:46.308Z,2.70
2022-09-04T01:50:58.364Z,2.80
2022-09-04T01:53:12.049Z,2.90
2022-09-04T01:55:26.428Z,2.60
2022-09-04T01:57:46.413Z,2.80
2022-09-04T02:00:01.301Z,2.80
2022-09-04T02:02:18.851Z,2.40
2022-09-04T02:04:33.725Z,2.60
2022-09-04T02:06:48.555Z,2.40
2022-09-04T02:09:05.600Z,2.90
2022-09-04T02:11:15.050Z,2.80
2022-09-04T02:13:28.272Z,2.80
2022-09-04T02:15:42.082Z,2.80
2022-09-04T02:17:55.182Z,2.80
2022-09-04T02:20:10.510Z,2.70
2022-09-04T02:22:24.263Z,2.70
2022-09-04T02:24:38.539Z,2.80
2022-09-04T02:26:51.663Z,2.70
2022-09-04T02:29:03.480Z,2.80
2022-09-04T02:31:16.914Z,2.90
2022-09-04T02:33:27.032Z,2.80
2022-09-04T02:35:39.491Z,2.70
2022-09-04T02:37:55.752Z,2.70
2022-09-04T02:40:09.558Z,2.80
2022-09-04T02:42:24.278Z,3.10
2022-09-04T02:44:40.949Z,2.80
2022-09-04T02:46:59.995Z,2.70
2022-09-04T02:49:13.031Z,3.00
2022-09-04T02:51:32.690Z,2.70
2022-09-04T02:53:50.116Z,2.70
2022-09-04T02:56:06.840Z,2.60
2022-09-04T02:58:21.668Z,2.90
2022-09-04T03:00:41.218Z,2.80
2022-09-04T03:02:51.701Z,2.70
2022-09-04T03:05:04.596Z,2.70
2022-09-04T03:07:13.750Z,2.80
2022-09-04T03:09:24.230Z,2.60
2022-09-04T03:11:36.667Z,2.60
2022-09-04T03:13:46.963Z,2.60
2022-09-04T03:15:56.151Z,2.60
2022-09-04T03:18:06.230Z,2.50
2022-09-04T03:20:16.444Z,2.50
2022-09-04T03:22:27.354Z,2.50
2022-09-04T03:24:38.257Z,2.30
2022-09-04T03:26:44.127Z,2.40
2022-09-04T03:29:00.988Z,2.50
2022-09-04T03:31:23.581Z,2.20
2022-09-04T03:33:35.136Z,2.50
2022-09-04T03:35:49.592Z,2.50
2022-09-04T03:38:09.298Z,2.30
2022-09-04T03:40:28.653Z,2.30
2022-09-04T03:42:43.868Z,2.60
2022-09-04T03:45:02.943Z,2.20
2022-09-04T03:47:19.652Z,2.50
2022-09-04T03:49:37.578Z,2.40
2022-09-04T03:51:54.751Z,2.30
2022-09-04T03:54:08.398Z,2.50
2022-09-04T03:56:45.013Z,2.60
2022-09-04T03:59:01.532Z,2.50
2022-09-04T04:01:16.581Z,2.20
2022-09-04T04:03:40.546Z,2.70
2022-09-04T04:06:01.416Z,2.30
2022-09-04T04:08:34.171Z,2.50
2022-09-04T04:10:52.460Z,2.40
2022-09-04T04:13:21.248Z,2.60
2022-09-04T04:15:41.914Z,2.40
2022-09-04T04:18:03.728Z,2.30
2022-09-04T04:20:25.546Z,2.50
2022-09-04T04:22:43.836Z,2.40
2022-09-04T04:25:15.316Z,2.50
2022-09-04T04:27:32.263Z,2.20
2022-09-04T04:29:55.823Z,2.40
2022-09-04T04:32:18.899Z,2.20
2022-09-04T04:34:31.353Z,2.20
2022-09-04T04:36:42.738Z,2.20
2022-09-04T04:39:02.132Z,2.20
2022-09-04T04:41:23.241Z,2.20
2022-09-04T04:43:38.014Z,2.20
2022-09-04T04:45:52.135Z,2.10
2022-09-04T04:48:15.791Z,2.10
2022-09-04T04:50:28.187Z,2.00
2022-09-04T04:52:46.897Z,2.20
2022-09-04T04:55:05.736Z,2.10
2022-09-04T04:57:21.215Z,2.10
2022-09-04T04:59:34.647Z,2.20
2022-09-04T05:01:49.618Z,2.00
2022-09-04T05:04:11.073Z,1.80
2022-09-04T05:06:26.156Z,2.20
2022-09-04T05:08:40.517Z,1.90
2022-09-04T05:10:48.549Z,2.20
2022-09-04T05:13:02.372Z,2.00
2022-09-04T05:15:15.396Z,2.10
2022-09-04T05:17:31.486Z,2.00
2022-09-04T05:19:45.329Z,2.00
2022-09-04T05:21:56.137Z,1.90
2022-09-04T05:24:08.811Z,2.10
2022-09-04T05:26:22.726Z,2.30
2022-09-04T05:28:35.734Z,2.60
2022-09-04T05:30:49.226Z,2.40
2022-09-04T05:33:01.374Z,2.60
2022-09-04T05:35:15.745Z,2.30
2022-09-04T05:37:27.826Z,2.60
2022-09-04T05:39:37.689Z,2.90
2022-09-04T05:42:01.148Z,2.60
2022-09-04T05:44:26.961Z,2.50
2022-09-04T05:46:45.242Z,2.80
2022-09-04T05:49:00.649Z,2.60
2022-09-04T05:51:41.202Z,2.70
2022-09-04T05:54:21.331Z,2.70
2022-09-04T05:56:55.551Z,2.40
2022-09-04T05:59:30.415Z,2.40
2022-09-04T06:02:06.491Z,2.30
2022-09-04T06:04:33.012Z,2.20
2022-09-04T06:06:45.446Z,2.50
2022-09-04T06:09:15.650Z,2.40
2022-09-04T06:11:55.766Z,2.30
2022-09-04T06:14:12.095Z,2.10
2022-09-04T06:16:47.549Z,2.40
2022-09-04T06:19:07.113Z,1.90
2022-09-04T06:21:44.634Z,2.20
2022-09-04T06:24:30.558Z,2.20
2022-09-04T06:26:57.918Z,2.30
2022-09-04T06:29:29.108Z,2.10
2022-09-04T06:32:19.914Z,2.10
2022-09-04T06:34:40.660Z,2.40
2022-09-04T06:37:00.179Z,2.60
2022-09-04T06:39:23.839Z,2.60
2022-09-04T06:41:43.605Z,2.80
2022-09-04T06:44:01.276Z,2.60
2022-09-04T06:46:22.212Z,2.50
2022-09-04T06:48:42.795Z,2.50
2022-09-04T06:50:59.278Z,2.10
2022-09-04T06:53:26.751Z,2.40
2022-09-04T06:55:39.464Z,2.50
2022-09-04T06:58:02.439Z,3.40
2022-09-04T07:00:10.536Z,3.10
2022-09-04T07:02:32.455Z,3.10
2022-09-04T07:04:55.511Z,3.30
2022-09-04T07:07:10.334Z,3.40
2022-09-04T07:09:21.821Z,3.30
2022-09-04T07:11:40.688Z,3.80
2022-09-04T07:14:06.371Z,4.10
2022-09-04T07:16:34.716Z,3.90
2022-09-04T07:19:06.646Z,4.50
2022-09-04T07:21:17.974Z,3.60
2022-09-04T07:23:33.633Z,3.50
2022-09-04T07:25:47.924Z,3.90
2022-09-04T07:28:07.645Z,4.00
2022-09-04T07:30:14.949Z,4.10
2022-09-04T07:32:24.995Z,4.00
2022-09-04T07:34:37.855Z,4.00
2022-09-04T07:36:52.110Z,3.80
2022-09-04T07:39:02.770Z,3.80
2022-09-04T07:41:13.122Z,3.80
2022-09-04T07:43:31.150Z,3.90
2022-09-04T07:45:40.335Z,4.10
2022-09-04T07:47:53.436Z,4.00
2022-09-04T07:50:07.689Z,3.80
2022-09-04T07:52:24.722Z,3.60
2022-09-04T07:55:04.069Z,3.80
2022-09-04T07:57:31.092Z,3.30
2022-09-04T07:59:53.954Z,3.80
2022-09-04T08:02:18.727Z,3.90
2022-09-04T08:04:48.523Z,3.70
2022-09-04T08:06:59.221Z,3.80
2022-09-04T08:09:26.072Z,3.90
2022-09-04T08:11:49.451Z,3.70
2022-09-04T08:14:16.864Z,4.00
2022-09-04T08:16:30.562Z,3.90
2022-09-04T08:18:52.114Z,3.80
2022-09-04T08:21:10.980Z,3.90
2022-09-04T08:23:40.558Z,4.00
2022-09-04T08:25:58.425Z,3.70
2022-09-04T08:28:26.291Z,3.60
2022-09-04T08:30:41.059Z,3.90
2022-09-04T08:33:24.912Z,4.20
2022-09-04T08:35:35.053Z,4.30
2022-09-04T08:37:58.596Z,4.10
2022-09-04T08:40:39.620Z,4.80
2022-09-04T08:43:13.226Z,4.30
2022-09-04T08:45:48.536Z,4.40
2022-09-04T08:48:23.964Z,4.50
2022-09-04T08:51:03.455Z,4.60
2022-09-04T08:53:29.627Z,4.50
2022-09-04T08:56:13.219Z,4.40
2022-09-04T08:58:47.740Z,4.00
2022-09-04T09:01:16.633Z,4.10
2022-09-04T09:03:51.336Z,3.90
2022-09-04T09:06:21.445Z,3.70
2022-09-04T09:09:09.306Z,3.80
2022-09-04T09:12:04.661Z,3.70
2022-09-04T09:14:41.473Z,3.40
2022-09-04T09:16:57.326Z,3.80
2022-09-04T09:19:26.157Z,3.60
2022-09-04T09:21:44.250Z,3.00
2022-09-04T09:24:15.241Z,3.70
2022-09-04T09:26:44.029Z,3.40
2022-09-04T09:29:34.481Z,3.40
2022-09-04T09:32:11.495Z,3.80
2022-09-04T09:34:39.442Z,3.20
2022-09-04T09:37:23.756Z,3.50
2022-09-04T09:40:24.189Z,3.50
2022-09-04T09:43:04.268Z,3.40
2022-09-04T09:45:39.845Z,3.80
2022-09-04T09:48:22.917Z,3.40
2022-09-04T09:51:16.699Z,3.60
2022-09-04T09:54:13.321Z,3.10
2022-09-04T09:56:53.523Z,4.20
2022-09-04T09:59:32.615Z,3.80
2022-09-04T10:01:54.878Z,3.30
2022-09-04T10:04:22.653Z,3.30
2022-09-04T10:06:51.789Z,3.70
2022-09-04T10:09:30.788Z,3.20
2022-09-04T10:12:06.996Z,3.30
2022-09-04T10:14:41.164Z,3.70
2022-09-04T10:17:13.239Z,3.50
2022-09-04T10:19:46.997Z,3.40
2022-09-04T10:22:43.276Z,3.30
2022-09-04T10:25:17.905Z,3.40
2022-09-04T10:27:59.482Z,3.70
2022-09-04T10:30:10.708Z,3.40
2022-09-04T10:32:36.659Z,3.70
2022-09-04T10:35:08.966Z,3.80
2022-09-04T10:37:29.881Z,3.60
2022-09-04T10:39:48.444Z,3.50
2022-09-04T10:42:06.161Z,3.40
2022-09-04T10:44:38.408Z,4.40
2022-09-04T10:46:53.928Z,3.50
2022-09-04T10:49:29.150Z,4.20
2022-09-04T10:52:06.159Z,4.10
2022-09-04T10:54:26.910Z,4.30
2022-09-04T10:56:41.068Z,4.40
2022-09-04T10:59:18.626Z,4.50
2022-09-04T11:01:48.396Z,4.20
2022-09-04T11:04:31.659Z,4.40
2022-09-04T11:06:52.485Z,4.00
2022-09-04T11:09:28.066Z,3.90
2022-09-04T11:11:57.316Z,3.60
2022-09-04T11:14:47.415Z,3.90
2022-09-04T11:17:16.643Z,4.10
2022-09-04T11:20:01.811Z,4.00
2022-09-04T11:22:55.118Z,3.90
2022-09-04T11:25:36.756Z,3.80
2022-09-04T11:28:35.910Z,4.20
2022-09-04T11:30:54.420Z,4.30
2022-09-04T11:33:37.845Z,4.10
2022-09-04T11:36:17.256Z,3.90
2022-09-04T11:38:42.817Z,4.00
2022-09-04T11:41:15.126Z,4.60
2022-09-04T11:43:38.679Z,4.30
2022-09-04T11:46:03.935Z,4.20
2022-09-04T11:48:40.632Z,4.00
2022-09-04T11:51:05.831Z,4.20
2022-09-04T11:53:34.617Z,4.40
2022-09-04T11:56:15.274Z,3.70
2022-09-04T11:58:43.809Z,4.00
2022-09-04T12:00:59.636Z,4.40
2022-09-04T12:03:52.124Z,4.10
2022-09-04T12:06:17.248Z,4.00
2022-09-04T12:09:19.517Z,4.40
2022-09-04T12:11:55.921Z,4.30
2022-09-04T12:14:20.236Z,4.30
2022-09-04T12:17:05.993Z,3.80
2022-09-04T12:19:47.125Z,3.70
2022-09-04T12:22:22.975Z,4.00
2022-09-04T12:24:58.250Z,3.90
2022-09-04T12:27:40.121Z,4.10
2022-09-04T12:30:11.296Z,3.60
2022-09-04T12:33:00.736Z,4.50
2022-09-04T12:35:36.475Z,4.70
2022-09-04T12:38:12.149Z,4.30
2022-09-04T12:40:32.651Z,4.10
2022-09-04T12:42:45.075Z,4.20
2022-09-04T12:44:59.591Z,4.20
2022-09-04T12:47:18.016Z,4.50
2022-09-04T12:49:50.258Z,4.20
2022-09-04T12:52:06.317Z,4.80
2022-09-04T12:54:30.572Z,4.90
2022-09-04T12:56:48.999Z,4.00
2022-09-04T12:59:16.246Z,4.20
2022-09-04T13:01:37.677Z,4.10
2022-09-04T13:03:55.504Z,4.00
2022-09-04T13:06:12.245Z,3.60
2022-09-04T13:08:25.193Z,4.10
2022-09-04T13:10:43.296Z,3.70
2022-09-04T13:12:58.579Z,2.60
2022-09-04T13:15:31.405Z,3.40
2022-09-04T13:17:47.815Z,3.50
2022-09-04T13:20:00.730Z,3.20
2022-09-04T13:22:23.677Z,3.20
2022-09-04T13:24:44.697Z,3.60
2022-09-04T13:27:06.162Z,2.90
2022-09-04T13:29:26.764Z,3.70
2022-09-04T13:31:44.450Z,3.80
2022-09-04T13:33:57.294Z,4.10
2022-09-04T13:36:14.057Z,3.70
2022-09-04T13:38:51.551Z,3.60
2022-09-04T13:41:30.321Z,4.00
2022-09-04T13:44:06.540Z,3.90
2022-09-04T13:46:17.983Z,3.80
2022-09-04T13:48:37.161Z,7.10
2022-09-04T13:50:47.149Z,4.30
2022-09-04T13:52:57.357Z,4.30
2022-09-04T13:55:07.898Z,4.20
2022-09-04T13:57:20.028Z,4.00
2022-09-04T13:59:25.501Z,4.20
2022-09-04T14:01:33.740Z,4.10
2022-09-04T14:03:45.510Z,4.10
2022-09-04T14:05:50.886Z,4.10
2022-09-04T14:08:02.190Z,4.30
2022-09-04T14:10:12.606Z,4.60
2022-09-04T14:12:48.731Z,4.40
2022-09-04T14:15:25.821Z,4.30
2022-09-04T14:17:43.081Z,3.80
2022-09-04T14:20:00.522Z,3.70
2022-09-04T14:22:25.514Z,3.70
2022-09-04T14:27:11.366Z,3.80
2022-09-04T14:29:28.627Z,4.10
2022-09-04T14:30:29.389Z,4.10
2022-09-04T14:31:46.401Z,4.10
2022-09-04T14:34:00.668Z,4.20
2022-09-04T14:36:18.706Z,3.80
2022-09-04T14:38:45.762Z,4.10
2022-09-04T14:41:00.504Z,4.00
2022-09-04T14:43:15.229Z,3.70
2022-09-04T14:45:38.671Z,3.60
2022-09-04T14:47:47.707Z,3.60
2022-09-04T14:49:55.069Z,3.60
2022-09-04T14:52:11.831Z,3.50
2022-09-04T14:54:25.376Z,3.70
2022-09-04T14:56:35.057Z,4.20
2022-09-04T14:58:47.723Z,3.80
2022-09-04T15:01:00.952Z,3.10
2022-09-04T15:03:21.960Z,3.50
2022-09-04T15:05:33.631Z,3.30
2022-09-04T15:07:54.240Z,4.10
2022-09-04T15:10:14.139Z,3.50
2022-09-04T15:12:25.126Z,3.20
2022-09-04T15:14:36.769Z,3.20
2022-09-04T15:16:50.459Z,3.20
2022-09-04T15:19:01.847Z,4.00
2022-09-04T15:21:14.697Z,3.90
2022-09-04T15:23:27.709Z,4.00
2022-09-04T15:25:58.618Z,3.70
2022-09-04T15:28:10.852Z,3.60
2022-09-04T15:30:22.137Z,3.30
2022-09-04T15:32:31.162Z,3.80
2022-09-04T15:34:37.255Z,4.30
2022-09-04T15:36:43.260Z,4.30
2022-09-04T15:38:54.373Z,3.90
2022-09-04T15:41:16.783Z,4.10
2022-09-04T15:43:28.237Z,4.30
2022-09-04T15:45:42.571Z,4.30
2022-09-04T15:48:06.269Z,4.70
2022-09-04T15:50:21.291Z,4.40
2022-09-04T15:52:37.870Z,3.70
2022-09-04T15:55:20.797Z,4.20
2022-09-04T15:57:32.398Z,4.20
2022-09-04T15:59:48.799Z,4.50
2022-09-04T16:02:01.990Z,5.20
2022-09-04T16:04:13.166Z,6.00
2022-09-04T16:06:24.044Z,5.00
2022-09-04T16:08:37.537Z,5.30
2022-09-04T16:10:53.327Z,4.30
2022-09-04T16:13:03.854Z,4.90
2022-09-04T16:15:17.042Z,5.10
2022-09-04T16:17:25.335Z,4.50
2022-09-04T16:19:35.564Z,4.80
2022-09-04T16:21:47.031Z,6.40
2022-09-04T16:23:53.441Z,9.00
2022-09-04T16:25:59.284Z,6.90
2022-09-04T16:28:08.479Z,5.80
2022-09-04T16:30:28.578Z,7.00
2022-09-04T16:32:35.732Z,6.60
2022-09-04T16:34:47.236Z,7.80
2022-09-04T16:36:57.604Z,6.80
2022-09-04T16:39:10.196Z,4.90
2022-09-04T16:41:20.477Z,6.10
2022-09-04T16:43:28.414Z,5.50
2022-09-04T16:45:40.261Z,5.30
2022-09-04T16:47:53.832Z,5.20
2022-09-04T16:50:07.644Z,5.30
2022-09-04T16:52:58.874Z,4.90
2022-09-04T16:55:23.660Z,7.10
2022-09-04T16:57:36.984Z,5.80
2022-09-04T16:59:46.280Z,5.90
2022-09-04T17:01:59.315Z,6.70
2022-09-04T17:04:24.250Z,5.20
2022-09-04T17:06:33.737Z,5.50
2022-09-04T17:08:45.182Z,5.80
2022-09-04T17:10:54.219Z,6.60
2022-09-04T17:13:05.836Z,5.90
2022-09-04T17:15:21.727Z,6.20
2022-09-04T17:17:30.563Z,6.00
2022-09-04T17:19:36.590Z,5.60
2022-09-04T17:28:57.381Z,5.80
2022-09-04T17:29:04.197Z,5.60
2022-09-04T17:29:14.375Z,5.40
2022-09-04T17:29:42.890Z,5.30
2022-09-04T17:31:57.298Z,5.80
2022-09-04T17:40:41.060Z,6.00
2022-09-04T17:40:46.716Z,5.70
2022-09-04T17:40:54.772Z,5.50
2022-09-04T17:41:55.832Z,5.80
2022-09-04T17:44:22.721Z,6.30
2022-09-04T17:46:33.396Z,6.40
2022-09-04T17:48:43.213Z,7.40
2022-09-04T17:50:52.712Z,11.50
2022-09-04T17:53:01.704Z,6.50
2022-09-04T17:55:09.105Z,7.80
2022-09-04T17:57:21.077Z,6.30
2022-09-04T17:59:34.344Z,6.80
2022-09-04T18:01:45.262Z,6.00
2022-09-04T18:04:20.459Z,6.60
2022-09-04T18:06:27.179Z,6.10
2022-09-04T18:08:37.843Z,7.00
2022-09-04T18:10:55.301Z,6.60
2022-09-04T18:13:37.108Z,6.20
2022-09-04T18:15:47.338Z,7.20
2022-09-04T18:18:00.067Z,6.90
2022-09-04T18:20:16.148Z,7.00
2022-09-04T18:22:33.725Z,6.00
2022-09-04T18:24:44.568Z,5.50
2022-09-04T18:26:56.763Z,5.60
2022-09-04T18:29:30.445Z,4.90
2022-09-04T18:37:12.507Z,5.30
2022-09-04T18:37:20.592Z,5.80
2022-09-04T18:37:26.562Z,5.40
2022-09-04T18:39:30.089Z,5.00
2022-09-04T18:50:21.059Z,7.80
2022-09-04T18:50:22.476Z,5.90
2022-09-04T18:50:39.227Z,6.00
2022-09-04T18:51:04.356Z,5.40
2022-09-04T18:51:54.561Z,5.50
2022-09-04T18:54:08.268Z,4.90
2022-09-04T18:56:20.240Z,5.60
2022-09-04T18:58:47.556Z,5.10
2022-09-04T19:00:58.084Z,5.20
2022-09-04T19:03:12.241Z,5.40
2022-09-04T19:05:20.431Z,4.90
2022-09-04T19:07:30.068Z,5.00
2022-09-04T19:09:55.358Z,4.90
2022-09-04T19:12:07.086Z,4.60
2022-09-04T19:14:17.252Z,4.50
2022-09-04T19:16:29.236Z,5.00
2022-09-04T19:18:46.855Z,4.80
2022-09-04T19:21:00.002Z,5.10
2022-09-04T19:23:15.582Z,5.30
2022-09-04T19:25:25.605Z,6.00
2022-09-04T19:27:37.862Z,5.30
2022-09-04T19:29:51.993Z,5.10
2022-09-04T19:32:04.495Z,5.10
2022-09-04T19:34:18.891Z,5.40
2022-09-04T19:36:32.427Z,5.60
2022-09-04T19:45:19.985Z,5.50
2022-09-04T19:45:55.021Z,5.90
2022-09-04T19:46:04.422Z,5.40
2022-09-04T19:46:34.194Z,5.80
2022-09-04T19:50:54.031Z,5.30
2022-09-04T19:53:30.090Z,5.30
2022-09-04T19:54:06.465Z,5.60
2022-09-04T19:56:23.094Z,5.60
2022-09-04T19:58:37.801Z,5.40
2022-09-04T20:00:50.232Z,6.40
2022-09-04T20:02:59.374Z,5.80
2022-09-04T20:05:10.857Z,5.60
2022-09-04T20:07:32.703Z,5.40
2022-09-04T20:09:50.339Z,5.70
2022-09-04T20:11:59.238Z,5.50
2022-09-04T20:14:14.017Z,6.20
2022-09-04T20:16:25.045Z,5.60
2022-09-04T20:18:39.412Z,6.20
2022-09-04T20:20:53.413Z,5.70
2022-09-04T20:23:35.269Z,8.30
2022-09-04T20:25:39.843Z,8.40
2022-09-04T20:27:48.343Z,6.30
2022-09-04T20:29:57.681Z,6.20
2022-09-04T20:32:08.864Z,6.20
2022-09-04T20:34:36.798Z,5.70
2022-09-04T20:36:48.860Z,6.70
2022-09-04T20:38:59.383Z,5.90
2022-09-04T20:41:12.733Z,6.00
2022-09-04T20:43:27.220Z,6.20
2022-09-04T20:47:30.696Z,6.00
2022-09-04T20:52:45.189Z,5.80
2022-09-04T20:53:07.180Z,5.90
2022-09-04T20:53:26.245Z,5.90
2022-09-04T20:55:46.420Z,6.00
2022-09-04T21:03:06.293Z,6.30
2022-09-04T21:03:19.262Z,6.00
2022-09-04T21:03:29.406Z,6.20
2022-09-04T21:06:04.313Z,6.20
2022-09-04T21:08:25.956Z,6.00
2022-09-04T21:10:35.802Z,6.50
2022-09-04T21:12:46.360Z,6.50
2022-09-04T21:14:56.014Z,6.60
2022-09-04T21:17:34.175Z,6.40
2022-09-04T21:20:08.451Z,5.90
2022-09-04T21:22:33.891Z,6.10
2022-09-04T21:25:07.048Z,6.00
2022-09-04T21:28:09.268Z,6.30
2022-09-04T21:30:16.831Z,7.10
2022-09-04T21:32:40.414Z,6.40
2022-09-04T21:35:02.396Z,6.10
2022-09-04T21:37:15.940Z,6.30
2022-09-04T21:39:41.002Z,6.20
2022-09-04T21:42:01.651Z,6.20
2022-09-04T21:44:50.473Z,7.00
2022-09-04T21:47:09.776Z,6.90
2022-09-04T21:49:35.445Z,6.30
2022-09-04T21:52:00.431Z,6.90
2022-09-04T21:54:38.416Z,6.50
2022-09-04T22:02:30.448Z,6.50
2022-09-04T22:02:45.496Z,6.10
2022-09-04T22:02:52.681Z,6.40
2022-09-04T22:05:11.115Z,6.10
2022-09-04T22:11:56.890Z,6.20
2022-09-04T22:13:33.498Z,9.60
2022-09-04T22:13:44.165Z,7.50
2022-09-04T22:15:08.707Z,6.30
2022-09-04T22:17:40.490Z,5.60
2022-09-04T22:20:21.022Z,6.40
2022-09-04T22:23:02.114Z,5.90
2022-09-04T22:25:26.963Z,5.90
2022-09-04T22:28:08.878Z,6.10
2022-09-04T22:30:16.150Z,6.20
2022-09-04T22:32:50.690Z,6.00
2022-09-04T22:35:36.539Z,5.80
2022-09-04T22:38:07.886Z,6.00
2022-09-04T22:40:27.324Z,5.90
2022-09-04T22:42:57.960Z,6.30
2022-09-04T22:45:36.328Z,6.20
2022-09-04T22:47:56.371Z,6.60
2022-09-04T22:50:49.967Z,6.40
2022-09-04T22:53:12.123Z,6.60
2022-09-04T22:55:40.182Z,6.20
2022-09-04T22:58:17.605Z,6.40
2022-09-04T23:00:24.424Z,6.60
2022-09-04T23:03:07.868Z,6.60
2022-09-04T23:05:36.453Z,6.70
2022-09-04T23:13:46.678Z,6.50
2022-09-04T23:13:47.523Z,6.30
2022-09-04T23:14:05.356Z,6.50
2022-09-04T23:16:27.764Z,6.90
2022-09-04T23:21:34.062Z,6.70
2022-09-04T23:26:50.718Z,7.20
2022-09-04T23:26:53.818Z,6.80
2022-09-04T23:27:28.590Z,7.30
2022-09-04T23:30:04.036Z,6.90
2022-09-04T23:32:27.342Z,7.20
2022-09-04T23:35:14.754Z,7.20
2022-09-04T23:38:00.025Z,7.30
2022-09-04T23:40:19.263Z,8.00
2022-09-04T23:42:45.488Z,7.10
2022-09-04T23:45:17.495Z,7.30
2022-09-04T23:47:55.201Z,7.60
2022-09-04T23:50:05.013Z,7.40
2022-09-04T23:52:25.206Z,7.30
2022-09-04T23:55:03.084Z,7.90
2022-09-04T23:57:25.843Z,7.80
2022-09-04T23:59:38.931Z,8.60
